sensor_id;sensor_type;location;lat;lon;timestamp;P1;durP1;ratioP1;P2;durP2;ratioP2
5345;SDS011;2695;49.444;11.054;2023-05-10T00:00:19;8.13;;;5.50;;
5345;SDS011;2695;49.444;11.054;2023-05-10T00:02:50;10.73;;;6.33;;
5345;SDS011;2695;49.444;11.054;2023-05-10T00:05:18;8.77;;;6.00;;
5345;SDS011;2695;49.444;11.054;2023-05-10T00:07:46;10.33;;;5.83;;
5345;SDS011;2695;49.444;11.054;2023-05-10T00:10:17;7.63;;;5.60;;
5345;SDS011;2695;49.444;11.054;2023-05-10T00:12:45;7.30;;;6.00;;
5345;SDS011;2695;49.444;11.054;2023-05-10T00:15:13;8.03;;;5.50;;
5345;SDS011;2695;49.444;11.054;2023-05-10T00:17:41;7.30;;;5.63;;
5345;SDS011;2695;49.444;11.054;2023-05-10T00:20:11;8.33;;;5.03;;
5345;SDS011;2695;49.444;11.054;2023-05-10T00:22:39;6.30;;;5.07;;
5345;SDS011;2695;49.444;11.054;2023-05-10T00:25:08;10.80;;;5.90;;
5345;SDS011;2695;49.444;11.054;2023-05-10T00:27:36;7.63;;;5.10;;
5345;SDS011;2695;49.444;11.054;2023-05-10T00:30:04;6.60;;;5.60;;
5345;SDS011;2695;49.444;11.054;2023-05-10T00:32:33;8.30;;;5.50;;
5345;SDS011;2695;49.444;11.054;2023-05-10T00:35:01;8.30;;;5.53;;
5345;SDS011;2695;49.444;11.054;2023-05-10T00:37:31;7.70;;;5.50;;
5345;SDS011;2695;49.444;11.054;2023-05-10T00:39:59;7.13;;;5.73;;
5345;SDS011;2695;49.444;11.054;2023-05-10T00:42:27;9.47;;;6.33;;
5345;SDS011;2695;49.444;11.054;2023-05-10T00:44:55;5.70;;;5.20;;
5345;SDS011;2695;49.444;11.054;2023-05-10T00:47:23;7.13;;;5.80;;
5345;SDS011;2695;49.444;11.054;2023-05-10T00:49:51;5.90;;;5.20;;
5345;SDS011;2695;49.444;11.054;2023-05-10T00:52:19;7.90;;;6.13;;
5345;SDS011;2695;49.444;11.054;2023-05-10T00:54:51;10.77;;;6.40;;
5345;SDS011;2695;49.444;11.054;2023-05-10T00:57:19;5.90;;;5.30;;
5345;SDS011;2695;49.444;11.054;2023-05-10T00:59:48;7.60;;;6.20;;
5345;SDS011;2695;49.444;11.054;2023-05-10T01:02:16;7.70;;;5.97;;
5345;SDS011;2695;49.444;11.054;2023-05-10T01:04:44;6.03;;;5.40;;
5345;SDS011;2695;49.444;11.054;2023-05-10T01:07:12;8.80;;;6.77;;
5345;SDS011;2695;49.444;11.054;2023-05-10T01:09:40;8.83;;;6.23;;
5345;SDS011;2695;49.444;11.054;2023-05-10T01:12:09;6.40;;;5.77;;
5345;SDS011;2695;49.444;11.054;2023-05-10T01:14:38;9.93;;;6.37;;
5345;SDS011;2695;49.444;11.054;2023-05-10T01:17:06;7.73;;;6.43;;
5345;SDS011;2695;49.444;11.054;2023-05-10T01:19:37;9.53;;;5.87;;
5345;SDS011;2695;49.444;11.054;2023-05-10T01:22:07;7.77;;;6.40;;
5345;SDS011;2695;49.444;11.054;2023-05-10T01:24:54;6.63;;;5.93;;
5345;SDS011;2695;49.444;11.054;2023-05-10T01:30:38;8.50;;;6.50;;
5345;SDS011;2695;49.444;11.054;2023-05-10T01:33:33;7.83;;;5.60;;
5345;SDS011;2695;49.444;11.054;2023-05-10T01:36:05;7.87;;;5.73;;
5345;SDS011;2695;49.444;11.054;2023-05-10T01:38:42;7.47;;;6.00;;
5345;SDS011;2695;49.444;11.054;2023-05-10T01:41:17;6.00;;;5.00;;
5345;SDS011;2695;49.444;11.054;2023-05-10T01:43:54;6.70;;;4.73;;
5345;SDS011;2695;49.444;11.054;2023-05-10T01:46:27;6.20;;;5.50;;
5345;SDS011;2695;49.444;11.054;2023-05-10T01:48:59;7.53;;;6.23;;
5345;SDS011;2695;49.444;11.054;2023-05-10T01:51:31;9.93;;;5.37;;
5345;SDS011;2695;49.444;11.054;2023-05-10T01:54:04;6.70;;;5.50;;
5345;SDS011;2695;49.444;11.054;2023-05-10T01:56:34;6.30;;;5.20;;
5345;SDS011;2695;49.444;11.054;2023-05-10T01:59:06;7.87;;;5.40;;
5345;SDS011;2695;49.444;11.054;2023-05-10T02:01:40;9.43;;;5.40;;
5345;SDS011;2695;49.444;11.054;2023-05-10T02:04:11;6.87;;;5.10;;
5345;SDS011;2695;49.444;11.054;2023-05-10T02:06:44;6.57;;;4.70;;
5345;SDS011;2695;49.444;11.054;2023-05-10T02:09:22;6.20;;;4.87;;
5345;SDS011;2695;49.444;11.054;2023-05-10T02:11:53;6.20;;;5.50;;
5345;SDS011;2695;49.444;11.054;2023-05-10T02:14:22;5.10;;;4.60;;
5345;SDS011;2695;49.444;11.054;2023-05-10T02:16:52;10.30;;;5.03;;
5345;SDS011;2695;49.444;11.054;2023-05-10T02:19:23;7.73;;;4.70;;
5345;SDS011;2695;49.444;11.054;2023-05-10T02:21:52;6.43;;;4.80;;
5345;SDS011;2695;49.444;11.054;2023-05-10T02:24:22;10.20;;;4.93;;
5345;SDS011;2695;49.444;11.054;2023-05-10T02:26:52;5.60;;;4.70;;
5345;SDS011;2695;49.444;11.054;2023-05-10T02:29:21;5.90;;;5.03;;
5345;SDS011;2695;49.444;11.054;2023-05-10T02:31:52;4.90;;;4.30;;
5345;SDS011;2695;49.444;11.054;2023-05-10T02:34:23;5.20;;;4.33;;
5345;SDS011;2695;49.444;11.054;2023-05-10T02:36:54;5.07;;;3.80;;
5345;SDS011;2695;49.444;11.054;2023-05-10T02:39:23;4.40;;;4.00;;
5345;SDS011;2695;49.444;11.054;2023-05-10T02:41:54;4.03;;;3.60;;
5345;SDS011;2695;49.444;11.054;2023-05-10T02:44:24;5.03;;;3.80;;
5345;SDS011;2695;49.444;11.054;2023-05-10T02:46:57;5.57;;;3.80;;
5345;SDS011;2695;49.444;11.054;2023-05-10T02:49:27;5.20;;;3.60;;
5345;SDS011;2695;49.444;11.054;2023-05-10T02:51:56;4.23;;;3.83;;
5345;SDS011;2695;49.444;11.054;2023-05-10T02:54:30;3.60;;;3.30;;
5345;SDS011;2695;49.444;11.054;2023-05-10T02:57:02;4.70;;;3.40;;
5345;SDS011;2695;49.444;11.054;2023-05-10T02:59:32;3.17;;;2.97;;
5345;SDS011;2695;49.444;11.054;2023-05-10T03:02:00;2.43;;;2.23;;
5345;SDS011;2695;49.444;11.054;2023-05-10T03:04:29;3.00;;;2.70;;
5345;SDS011;2695;49.444;11.054;2023-05-10T03:06:57;2.50;;;2.30;;
5345;SDS011;2695;49.444;11.054;2023-05-10T03:09:40;4.20;;;1.97;;
5345;SDS011;2695;49.444;11.054;2023-05-10T03:12:10;2.53;;;2.30;;
5345;SDS011;2695;49.444;11.054;2023-05-10T03:14:44;2.37;;;2.17;;
5345;SDS011;2695;49.444;11.054;2023-05-10T03:17:22;4.67;;;2.80;;
5345;SDS011;2695;49.444;11.054;2023-05-10T03:19:58;3.63;;;2.10;;
5345;SDS011;2695;49.444;11.054;2023-05-10T03:22:31;3.57;;;2.30;;
5345;SDS011;2695;49.444;11.054;2023-05-10T03:25:04;3.77;;;2.63;;
5345;SDS011;2695;49.444;11.054;2023-05-10T03:27:35;5.30;;;1.73;;
5345;SDS011;2695;49.444;11.054;2023-05-10T03:30:07;3.27;;;1.97;;
5345;SDS011;2695;49.444;11.054;2023-05-10T03:32:36;5.70;;;2.20;;
5345;SDS011;2695;49.444;11.054;2023-05-10T03:35:07;1.90;;;1.70;;
5345;SDS011;2695;49.444;11.054;2023-05-10T03:37:35;3.60;;;2.30;;
5345;SDS011;2695;49.444;11.054;2023-05-10T03:40:07;1.57;;;1.47;;
5345;SDS011;2695;49.444;11.054;2023-05-10T03:42:35;5.80;;;2.17;;
5345;SDS011;2695;49.444;11.054;2023-05-10T03:45:03;1.87;;;1.30;;
5345;SDS011;2695;49.444;11.054;2023-05-10T03:47:32;3.20;;;1.30;;
5345;SDS011;2695;49.444;11.054;2023-05-10T03:50:00;2.20;;;1.23;;
5345;SDS011;2695;49.444;11.054;2023-05-10T03:52:30;2.60;;;1.10;;
5345;SDS011;2695;49.444;11.054;2023-05-10T03:54:58;5.33;;;1.40;;
5345;SDS011;2695;49.444;11.054;2023-05-10T03:57:26;0.97;;;0.90;;
5345;SDS011;2695;49.444;11.054;2023-05-10T03:59:53;2.17;;;1.27;;
5345;SDS011;2695;49.444;11.054;2023-05-10T04:02:21;1.97;;;1.00;;
5345;SDS011;2695;49.444;11.054;2023-05-10T04:04:50;1.50;;;1.00;;
5345;SDS011;2695;49.444;11.054;2023-05-10T04:07:18;1.73;;;1.00;;
5345;SDS011;2695;49.444;11.054;2023-05-10T04:09:47;1.20;;;1.10;;
5345;SDS011;2695;49.444;11.054;2023-05-10T04:12:15;3.70;;;1.03;;
5345;SDS011;2695;49.444;11.054;2023-05-10T04:14:43;1.00;;;0.90;;
5345;SDS011;2695;49.444;11.054;2023-05-10T04:17:11;1.20;;;0.97;;
5345;SDS011;2695;49.444;11.054;2023-05-10T04:19:39;1.23;;;1.13;;
5345;SDS011;2695;49.444;11.054;2023-05-10T04:22:07;3.03;;;1.60;;
5345;SDS011;2695;49.444;11.054;2023-05-10T04:24:35;2.20;;;1.63;;
5345;SDS011;2695;49.444;11.054;2023-05-10T04:27:05;2.40;;;1.30;;
5345;SDS011;2695;49.444;11.054;2023-05-10T04:29:33;1.47;;;1.20;;
5345;SDS011;2695;49.444;11.054;2023-05-10T04:32:00;1.23;;;1.10;;
5345;SDS011;2695;49.444;11.054;2023-05-10T04:34:29;1.40;;;1.10;;
5345;SDS011;2695;49.444;11.054;2023-05-10T04:37:00;0.70;;;0.60;;
5345;SDS011;2695;49.444;11.054;2023-05-10T04:39:28;1.37;;;0.90;;
5345;SDS011;2695;49.444;11.054;2023-05-10T04:41:56;1.50;;;0.90;;
5345;SDS011;2695;49.444;11.054;2023-05-10T04:44:25;1.73;;;1.63;;
5345;SDS011;2695;49.444;11.054;2023-05-10T04:46:53;2.10;;;1.20;;
5345;SDS011;2695;49.444;11.054;2023-05-10T04:49:21;1.17;;;0.80;;
5345;SDS011;2695;49.444;11.054;2023-05-10T04:51:49;1.03;;;0.90;;
5345;SDS011;2695;49.444;11.054;2023-05-10T04:54:17;0.80;;;0.70;;
5345;SDS011;2695;49.444;11.054;2023-05-10T04:56:45;2.70;;;1.10;;
5345;SDS011;2695;49.444;11.054;2023-05-10T04:59:13;0.93;;;0.83;;
5345;SDS011;2695;49.444;11.054;2023-05-10T05:01:42;1.40;;;0.80;;
5345;SDS011;2695;49.444;11.054;2023-05-10T05:04:10;1.67;;;1.10;;
5345;SDS011;2695;49.444;11.054;2023-05-10T05:06:38;1.60;;;1.50;;
5345;SDS011;2695;49.444;11.054;2023-05-10T05:09:06;0.80;;;0.70;;
5345;SDS011;2695;49.444;11.054;2023-05-10T05:11:36;2.90;;;0.80;;
5345;SDS011;2695;49.444;11.054;2023-05-10T05:14:06;1.23;;;0.80;;
5345;SDS011;2695;49.444;11.054;2023-05-10T05:16:34;4.80;;;1.00;;
5345;SDS011;2695;49.444;11.054;2023-05-10T05:19:04;2.80;;;0.90;;
5345;SDS011;2695;49.444;11.054;2023-05-10T05:21:32;1.17;;;0.90;;
5345;SDS011;2695;49.444;11.054;2023-05-10T05:24:00;0.70;;;0.70;;
5345;SDS011;2695;49.444;11.054;2023-05-10T05:26:28;1.63;;;1.10;;
5345;SDS011;2695;49.444;11.054;2023-05-10T05:28:56;1.63;;;0.97;;
5345;SDS011;2695;49.444;11.054;2023-05-10T05:31:24;3.53;;;1.50;;
5345;SDS011;2695;49.444;11.054;2023-05-10T05:33:52;3.00;;;1.20;;
5345;SDS011;2695;49.444;11.054;2023-05-10T05:36:21;4.00;;;1.10;;
5345;SDS011;2695;49.444;11.054;2023-05-10T05:38:49;3.10;;;1.33;;
5345;SDS011;2695;49.444;11.054;2023-05-10T05:41:17;3.23;;;1.37;;
5345;SDS011;2695;49.444;11.054;2023-05-10T05:43:46;1.93;;;1.33;;
5345;SDS011;2695;49.444;11.054;2023-05-10T05:46:14;1.30;;;1.20;;
5345;SDS011;2695;49.444;11.054;2023-05-10T05:52:31;2.53;;;1.30;;
5345;SDS011;2695;49.444;11.054;2023-05-10T05:54:59;3.90;;;1.80;;
5345;SDS011;2695;49.444;11.054;2023-05-10T05:57:27;5.30;;;1.43;;
5345;SDS011;2695;49.444;11.054;2023-05-10T06:00:09;6.63;;;4.00;;
5345;SDS011;2695;49.444;11.054;2023-05-10T06:02:37;2.67;;;1.73;;
5345;SDS011;2695;49.444;11.054;2023-05-10T06:05:06;9.67;;;5.90;;
5345;SDS011;2695;49.444;11.054;2023-05-10T06:07:36;2.97;;;1.30;;
5345;SDS011;2695;49.444;11.054;2023-05-10T06:10:05;3.47;;;2.37;;
5345;SDS011;2695;49.444;11.054;2023-05-10T06:12:34;4.60;;;3.00;;
5345;SDS011;2695;49.444;11.054;2023-05-10T06:15:02;3.13;;;1.73;;
5345;SDS011;2695;49.444;11.054;2023-05-10T06:17:31;6.10;;;1.60;;
5345;SDS011;2695;49.444;11.054;2023-05-10T06:19:59;1.73;;;1.33;;
5345;SDS011;2695;49.444;11.054;2023-05-10T06:22:27;2.10;;;1.20;;
5345;SDS011;2695;49.444;11.054;2023-05-10T06:24:57;2.23;;;1.00;;
5345;SDS011;2695;49.444;11.054;2023-05-10T06:27:25;1.73;;;1.33;;
5345;SDS011;2695;49.444;11.054;2023-05-10T06:29:53;2.90;;;1.57;;
5345;SDS011;2695;49.444;11.054;2023-05-10T06:32:30;1.20;;;1.10;;
5345;SDS011;2695;49.444;11.054;2023-05-10T06:34:59;2.90;;;1.23;;
5345;SDS011;2695;49.444;11.054;2023-05-10T06:37:27;1.10;;;0.87;;
5345;SDS011;2695;49.444;11.054;2023-05-10T06:39:57;3.90;;;1.10;;
5345;SDS011;2695;49.444;11.054;2023-05-10T06:42:25;1.30;;;1.10;;
5345;SDS011;2695;49.444;11.054;2023-05-10T06:44:53;5.27;;;1.40;;
5345;SDS011;2695;49.444;11.054;2023-05-10T06:47:21;3.00;;;1.13;;
5345;SDS011;2695;49.444;11.054;2023-05-10T06:49:49;1.73;;;1.57;;
5345;SDS011;2695;49.444;11.054;2023-05-10T06:52:17;1.03;;;0.93;;
5345;SDS011;2695;49.444;11.054;2023-05-10T06:54:45;1.57;;;1.47;;
5345;SDS011;2695;49.444;11.054;2023-05-10T06:57:15;6.27;;;1.47;;
5345;SDS011;2695;49.444;11.054;2023-05-10T06:59:57;5.00;;;1.60;;
5345;SDS011;2695;49.444;11.054;2023-05-10T07:02:25;1.50;;;1.20;;
5345;SDS011;2695;49.444;11.054;2023-05-10T07:04:53;2.50;;;2.10;;
5345;SDS011;2695;49.444;11.054;2023-05-10T07:07:24;4.47;;;2.37;;
5345;SDS011;2695;49.444;11.054;2023-05-10T07:09:55;2.23;;;1.23;;
5345;SDS011;2695;49.444;11.054;2023-05-10T07:12:25;2.50;;;1.20;;
5345;SDS011;2695;49.444;11.054;2023-05-10T07:14:57;2.10;;;1.40;;
5345;SDS011;2695;49.444;11.054;2023-05-10T07:17:25;1.07;;;0.97;;
5345;SDS011;2695;49.444;11.054;2023-05-10T07:19:54;3.37;;;1.30;;
5345;SDS011;2695;49.444;11.054;2023-05-10T07:22:22;2.20;;;1.10;;
5345;SDS011;2695;49.444;11.054;2023-05-10T07:24:50;1.37;;;1.07;;
5345;SDS011;2695;49.444;11.054;2023-05-10T07:27:18;1.93;;;1.27;;
5345;SDS011;2695;49.444;11.054;2023-05-10T07:29:47;1.93;;;1.33;;
5345;SDS011;2695;49.444;11.054;2023-05-10T07:32:15;1.47;;;1.23;;
5345;SDS011;2695;49.444;11.054;2023-05-10T07:34:44;2.60;;;1.53;;
5345;SDS011;2695;49.444;11.054;2023-05-10T07:37:12;3.10;;;1.33;;
5345;SDS011;2695;49.444;11.054;2023-05-10T07:39:40;5.13;;;1.27;;
5345;SDS011;2695;49.444;11.054;2023-05-10T07:42:09;1.63;;;1.30;;
5345;SDS011;2695;49.444;11.054;2023-05-10T07:44:37;2.03;;;1.20;;
5345;SDS011;2695;49.444;11.054;2023-05-10T07:47:06;2.00;;;1.80;;
5345;SDS011;2695;49.444;11.054;2023-05-10T07:49:35;12.87;;;2.20;;
5345;SDS011;2695;49.444;11.054;2023-05-10T07:52:03;5.17;;;1.40;;
5345;SDS011;2695;49.444;11.054;2023-05-10T07:54:36;1.50;;;1.40;;
5345;SDS011;2695;49.444;11.054;2023-05-10T07:57:04;2.97;;;1.10;;
5345;SDS011;2695;49.444;11.054;2023-05-10T07:59:32;3.77;;;1.10;;
5345;SDS011;2695;49.444;11.054;2023-05-10T08:02:00;4.30;;;1.40;;
5345;SDS011;2695;49.444;11.054;2023-05-10T08:04:30;1.20;;;1.10;;
5345;SDS011;2695;49.444;11.054;2023-05-10T08:06:58;1.30;;;1.10;;
5345;SDS011;2695;49.444;11.054;2023-05-10T08:09:26;4.43;;;1.30;;
5345;SDS011;2695;49.444;11.054;2023-05-10T08:11:54;1.50;;;1.30;;
5345;SDS011;2695;49.444;11.054;2023-05-10T08:14:23;2.73;;;1.07;;
5345;SDS011;2695;49.444;11.054;2023-05-10T08:16:51;1.50;;;1.00;;
5345;SDS011;2695;49.444;11.054;2023-05-10T08:19:19;1.23;;;1.13;;
5345;SDS011;2695;49.444;11.054;2023-05-10T08:21:49;1.33;;;1.23;;
5345;SDS011;2695;49.444;11.054;2023-05-10T08:24:17;1.23;;;1.03;;
5345;SDS011;2695;49.444;11.054;2023-05-10T08:26:45;3.73;;;1.10;;
5345;SDS011;2695;49.444;11.054;2023-05-10T08:29:13;1.67;;;1.57;;
5345;SDS011;2695;49.444;11.054;2023-05-10T08:31:42;1.57;;;1.47;;
5345;SDS011;2695;49.444;11.054;2023-05-10T08:34:10;3.20;;;1.70;;
5345;SDS011;2695;49.444;11.054;2023-05-10T08:36:38;2.73;;;1.53;;
5345;SDS011;2695;49.444;11.054;2023-05-10T08:39:08;1.37;;;1.27;;
5345;SDS011;2695;49.444;11.054;2023-05-10T08:41:54;1.90;;;1.30;;
5345;SDS011;2695;49.444;11.054;2023-05-10T08:44:27;3.47;;;1.70;;
5345;SDS011;2695;49.444;11.054;2023-05-10T08:46:56;1.47;;;1.27;;
5345;SDS011;2695;49.444;11.054;2023-05-10T08:49:26;2.70;;;1.03;;
5345;SDS011;2695;49.444;11.054;2023-05-10T08:51:59;1.53;;;1.43;;
5345;SDS011;2695;49.444;11.054;2023-05-10T08:54:33;1.10;;;1.00;;
5345;SDS011;2695;49.444;11.054;2023-05-10T08:57:01;1.80;;;1.30;;
5345;SDS011;2695;49.444;11.054;2023-05-10T08:59:30;1.67;;;1.30;;
5345;SDS011;2695;49.444;11.054;2023-05-10T09:01:59;2.23;;;1.67;;
5345;SDS011;2695;49.444;11.054;2023-05-10T09:04:29;3.13;;;1.40;;
5345;SDS011;2695;49.444;11.054;2023-05-10T09:06:58;3.83;;;2.03;;
5345;SDS011;2695;49.444;11.054;2023-05-10T09:09:26;8.87;;;2.00;;
5345;SDS011;2695;49.444;11.054;2023-05-10T09:11:57;2.33;;;1.67;;
5345;SDS011;2695;49.444;11.054;2023-05-10T09:14:25;2.73;;;1.60;;
5345;SDS011;2695;49.444;11.054;2023-05-10T09:16:53;2.83;;;2.07;;
5345;SDS011;2695;49.444;11.054;2023-05-10T09:19:22;2.60;;;1.97;;
5345;SDS011;2695;49.444;11.054;2023-05-10T09:21:51;1.70;;;1.37;;
5345;SDS011;2695;49.444;11.054;2023-05-10T09:24:19;6.30;;;2.90;;
5345;SDS011;2695;49.444;11.054;2023-05-10T09:26:53;3.43;;;2.00;;
5345;SDS011;2695;49.444;11.054;2023-05-10T09:29:22;8.17;;;3.70;;
5345;SDS011;2695;49.444;11.054;2023-05-10T09:31:51;2.67;;;2.10;;
5345;SDS011;2695;49.444;11.054;2023-05-10T09:34:22;3.80;;;1.77;;
5345;SDS011;2695;49.444;11.054;2023-05-10T09:36:57;4.20;;;3.27;;
5345;SDS011;2695;49.444;11.054;2023-05-10T09:39:32;3.83;;;1.93;;
5345;SDS011;2695;49.444;11.054;2023-05-10T09:42:02;3.00;;;2.20;;
5345;SDS011;2695;49.444;11.054;2023-05-10T09:44:33;6.65;;;1.80;;
5345;SDS011;2695;49.444;11.054;2023-05-10T09:47:02;3.75;;;2.03;;
5345;SDS011;2695;49.444;11.054;2023-05-10T09:49:30;3.15;;;1.70;;
5345;SDS011;2695;49.444;11.054;2023-05-10T09:52:00;3.25;;;1.63;;
5345;SDS011;2695;49.444;11.054;2023-05-10T09:54:29;6.28;;;1.80;;
5345;SDS011;2695;49.444;11.054;2023-05-10T09:56:58;3.67;;;1.58;;
5345;SDS011;2695;49.444;11.054;2023-05-10T09:59:28;2.88;;;1.50;;
5345;SDS011;2695;49.444;11.054;2023-05-10T10:01:59;3.20;;;2.10;;
5345;SDS011;2695;49.444;11.054;2023-05-10T10:04:27;3.35;;;2.00;;
5345;SDS011;2695;49.444;11.054;2023-05-10T10:07:00;6.35;;;1.30;;
5345;SDS011;2695;49.444;11.054;2023-05-10T10:09:29;2.08;;;1.27;;
5345;SDS011;2695;49.444;11.054;2023-05-10T10:11:58;1.73;;;1.17;;
5345;SDS011;2695;49.444;11.054;2023-05-10T10:14:27;1.83;;;1.50;;
5345;SDS011;2695;49.444;11.054;2023-05-10T10:16:57;2.15;;;1.40;;
5345;SDS011;2695;49.444;11.054;2023-05-10T10:19:32;4.03;;;1.20;;
5345;SDS011;2695;49.444;11.054;2023-05-10T10:22:02;3.30;;;1.45;;
5345;SDS011;2695;49.444;11.054;2023-05-10T10:24:30;1.45;;;1.17;;
5345;SDS011;2695;49.444;11.054;2023-05-10T10:27:00;2.30;;;1.67;;
5345;SDS011;2695;49.444;11.054;2023-05-10T10:29:36;2.60;;;1.60;;
5345;SDS011;2695;49.444;11.054;2023-05-10T10:32:11;1.48;;;1.38;;
5345;SDS011;2695;49.444;11.054;2023-05-10T10:34:49;3.10;;;1.50;;
5345;SDS011;2695;49.444;11.054;2023-05-10T10:37:18;5.15;;;1.80;;
5345;SDS011;2695;49.444;11.054;2023-05-10T10:39:47;3.17;;;1.10;;
5345;SDS011;2695;49.444;11.054;2023-05-10T10:45:16;1.75;;;1.13;;
5345;SDS011;2695;49.444;11.054;2023-05-10T10:47:46;2.05;;;1.50;;
5345;SDS011;2695;49.444;11.054;2023-05-10T10:50:14;2.05;;;1.15;;
5345;SDS011;2695;49.444;11.054;2023-05-10T10:52:43;2.42;;;1.25;;
5345;SDS011;2695;49.444;11.054;2023-05-10T10:55:14;3.20;;;1.57;;
5345;SDS011;2695;49.444;11.054;2023-05-10T10:57:47;1.53;;;1.13;;
5345;SDS011;2695;49.444;11.054;2023-05-10T11:00:27;1.17;;;1.10;;
5345;SDS011;2695;49.444;11.054;2023-05-10T11:02:59;1.30;;;1.20;;
5345;SDS011;2695;49.444;11.054;2023-05-10T11:05:42;1.33;;;0.90;;
5345;SDS011;2695;49.444;11.054;2023-05-10T11:08:12;1.73;;;1.20;;
5345;SDS011;2695;49.444;11.054;2023-05-10T11:10:53;6.23;;;1.87;;
5345;SDS011;2695;49.444;11.054;2023-05-10T11:13:37;3.20;;;2.33;;
5345;SDS011;2695;49.444;11.054;2023-05-10T11:16:16;3.10;;;1.70;;
5345;SDS011;2695;49.444;11.054;2023-05-10T11:21:47;3.63;;;1.10;;
5345;SDS011;2695;49.444;11.054;2023-05-10T11:24:19;6.20;;;1.43;;
5345;SDS011;2695;49.444;11.054;2023-05-10T11:26:49;3.10;;;1.20;;
5345;SDS011;2695;49.444;11.054;2023-05-10T11:29:38;1.57;;;1.47;;
5345;SDS011;2695;49.444;11.054;2023-05-10T11:32:07;3.80;;;1.30;;
5345;SDS011;2695;49.444;11.054;2023-05-10T11:34:38;3.10;;;1.40;;
5345;SDS011;2695;49.444;11.054;2023-05-10T11:37:07;1.83;;;1.30;;
5345;SDS011;2695;49.444;11.054;2023-05-10T11:39:37;3.67;;;1.17;;
5345;SDS011;2695;49.444;11.054;2023-05-10T11:42:07;1.90;;;1.10;;
5345;SDS011;2695;49.444;11.054;2023-05-10T11:44:37;1.83;;;1.20;;
5345;SDS011;2695;49.444;11.054;2023-05-10T11:47:07;6.43;;;1.47;;
5345;SDS011;2695;49.444;11.054;2023-05-10T11:49:36;1.70;;;1.60;;
5345;SDS011;2695;49.444;11.054;2023-05-10T11:52:11;2.40;;;1.90;;
5345;SDS011;2695;49.444;11.054;2023-05-10T11:54:44;3.77;;;1.60;;
5345;SDS011;2695;49.444;11.054;2023-05-10T11:57:15;2.80;;;2.17;;
5345;SDS011;2695;49.444;11.054;2023-05-10T11:59:44;1.47;;;1.37;;
5345;SDS011;2695;49.444;11.054;2023-05-10T12:02:16;2.80;;;1.43;;
5345;SDS011;2695;49.444;11.054;2023-05-10T12:04:47;1.60;;;1.27;;
5345;SDS011;2695;49.444;11.054;2023-05-10T12:07:16;2.50;;;1.47;;
5345;SDS011;2695;49.444;11.054;2023-05-10T12:12:37;3.40;;;1.50;;
5345;SDS011;2695;49.444;11.054;2023-05-10T12:15:12;2.20;;;1.50;;
5345;SDS011;2695;49.444;11.054;2023-05-10T12:17:46;1.93;;;1.60;;
5345;SDS011;2695;49.444;11.054;2023-05-10T12:20:18;2.13;;;1.60;;
5345;SDS011;2695;49.444;11.054;2023-05-10T12:22:49;2.63;;;1.50;;
5345;SDS011;2695;49.444;11.054;2023-05-10T12:25:20;2.17;;;1.83;;
5345;SDS011;2695;49.444;11.054;2023-05-10T12:27:51;2.77;;;1.20;;
5345;SDS011;2695;49.444;11.054;2023-05-10T12:30:21;5.30;;;1.87;;
5345;SDS011;2695;49.444;11.054;2023-05-10T12:32:51;1.13;;;1.03;;
5345;SDS011;2695;49.444;11.054;2023-05-10T12:35:22;1.77;;;1.33;;
5345;SDS011;2695;49.444;11.054;2023-05-10T12:37:51;1.80;;;1.30;;
5345;SDS011;2695;49.444;11.054;2023-05-10T12:40:20;4.60;;;1.23;;
5345;SDS011;2695;49.444;11.054;2023-05-10T12:42:49;1.20;;;1.07;;
5345;SDS011;2695;49.444;11.054;2023-05-10T12:45:18;4.60;;;1.57;;
5345;SDS011;2695;49.444;11.054;2023-05-10T12:47:47;1.73;;;1.10;;
5345;SDS011;2695;49.444;11.054;2023-05-10T12:50:15;1.10;;;1.00;;
5345;SDS011;2695;49.444;11.054;2023-05-10T12:52:45;3.33;;;1.27;;
5345;SDS011;2695;49.444;11.054;2023-05-10T12:55:14;2.20;;;1.20;;
5345;SDS011;2695;49.444;11.054;2023-05-10T12:57:42;7.70;;;1.20;;
5345;SDS011;2695;49.444;11.054;2023-05-10T13:00:11;2.90;;;1.60;;
5345;SDS011;2695;49.444;11.054;2023-05-10T13:02:40;1.67;;;1.20;;
5345;SDS011;2695;49.444;11.054;2023-05-10T13:05:08;1.57;;;1.10;;
5345;SDS011;2695;49.444;11.054;2023-05-10T13:07:39;4.07;;;1.70;;
5345;SDS011;2695;49.444;11.054;2023-05-10T13:10:11;2.03;;;1.63;;
5345;SDS011;2695;49.444;11.054;2023-05-10T13:12:40;8.70;;;1.60;;
5345;SDS011;2695;49.444;11.054;2023-05-10T13:15:08;1.70;;;1.10;;
5345;SDS011;2695;49.444;11.054;2023-05-10T13:17:37;2.60;;;1.10;;
5345;SDS011;2695;49.444;11.054;2023-05-10T13:20:07;2.60;;;1.40;;
5345;SDS011;2695;49.444;11.054;2023-05-10T13:22:35;2.00;;;1.80;;
5345;SDS011;2695;49.444;11.054;2023-05-10T13:25:06;1.70;;;1.60;;
5345;SDS011;2695;49.444;11.054;2023-05-10T13:27:36;1.83;;;1.47;;
5345;SDS011;2695;49.444;11.054;2023-05-10T13:30:05;1.60;;;1.50;;
5345;SDS011;2695;49.444;11.054;2023-05-10T13:32:37;1.60;;;1.47;;
5345;SDS011;2695;49.444;11.054;2023-05-10T13:35:19;1.77;;;1.30;;
5345;SDS011;2695;49.444;11.054;2023-05-10T13:37:48;2.63;;;2.33;;
5345;SDS011;2695;49.444;11.054;2023-05-10T13:40:16;3.70;;;2.80;;
5345;SDS011;2695;49.444;11.054;2023-05-10T13:42:46;2.93;;;1.30;;
5345;SDS011;2695;49.444;11.054;2023-05-10T13:45:14;2.43;;;1.27;;
5345;SDS011;2695;49.444;11.054;2023-05-10T13:47:42;3.20;;;2.70;;
5345;SDS011;2695;49.444;11.054;2023-05-10T13:50:10;2.07;;;1.30;;
5345;SDS011;2695;49.444;11.054;2023-05-10T13:52:38;1.83;;;1.07;;
5345;SDS011;2695;49.444;11.054;2023-05-10T13:55:06;1.57;;;1.40;;
5345;SDS011;2695;49.444;11.054;2023-05-10T13:57:35;6.47;;;1.70;;
5345;SDS011;2695;49.444;11.054;2023-05-10T14:00:08;2.17;;;1.23;;
5345;SDS011;2695;49.444;11.054;2023-05-10T14:02:37;1.43;;;0.90;;
5345;SDS011;2695;49.444;11.054;2023-05-10T14:05:05;1.63;;;0.87;;
5345;SDS011;2695;49.444;11.054;2023-05-10T14:07:33;2.40;;;1.40;;
5345;SDS011;2695;49.444;11.054;2023-05-10T14:10:01;3.13;;;1.63;;
5345;SDS011;2695;49.444;11.054;2023-05-10T14:12:29;3.83;;;1.60;;
5345;SDS011;2695;49.444;11.054;2023-05-10T14:14:57;2.00;;;1.07;;
5345;SDS011;2695;49.444;11.054;2023-05-10T14:17:27;1.43;;;1.07;;
5345;SDS011;2695;49.444;11.054;2023-05-10T14:19:55;2.03;;;1.03;;
5345;SDS011;2695;49.444;11.054;2023-05-10T14:22:23;1.50;;;1.20;;
5345;SDS011;2695;49.444;11.054;2023-05-10T14:24:51;2.53;;;1.43;;
5345;SDS011;2695;49.444;11.054;2023-05-10T14:27:19;3.03;;;1.23;;
5345;SDS011;2695;49.444;11.054;2023-05-10T14:29:47;5.57;;;1.47;;
5345;SDS011;2695;49.444;11.054;2023-05-10T14:32:15;2.30;;;1.47;;
5345;SDS011;2695;49.444;11.054;2023-05-10T14:34:44;9.67;;;5.77;;
5345;SDS011;2695;49.444;11.054;2023-05-10T14:37:13;1.20;;;1.10;;
5345;SDS011;2695;49.444;11.054;2023-05-10T14:39:41;1.93;;;1.50;;
5345;SDS011;2695;49.444;11.054;2023-05-10T14:42:09;1.17;;;0.90;;
5345;SDS011;2695;49.444;11.054;2023-05-10T14:44:37;4.87;;;1.40;;
5345;SDS011;2695;49.444;11.054;2023-05-10T14:47:05;1.93;;;1.60;;
5345;SDS011;2695;49.444;11.054;2023-05-10T14:49:36;1.47;;;1.37;;
5345;SDS011;2695;49.444;11.054;2023-05-10T14:52:06;1.80;;;1.23;;
5345;SDS011;2695;49.444;11.054;2023-05-10T14:54:34;1.30;;;1.03;;
5345;SDS011;2695;49.444;11.054;2023-05-10T14:57:02;5.50;;;1.77;;
5345;SDS011;2695;49.444;11.054;2023-05-10T14:59:30;2.00;;;1.50;;
5345;SDS011;2695;49.444;11.054;2023-05-10T15:01:58;2.00;;;1.33;;
5345;SDS011;2695;49.444;11.054;2023-05-10T15:04:27;2.27;;;1.43;;
5345;SDS011;2695;49.444;11.054;2023-05-10T15:06:55;1.93;;;1.47;;
5345;SDS011;2695;49.444;11.054;2023-05-10T15:09:26;3.50;;;1.70;;
5345;SDS011;2695;49.444;11.054;2023-05-10T15:11:55;1.50;;;1.30;;
5345;SDS011;2695;49.444;11.054;2023-05-10T15:14:23;4.60;;;2.27;;
5345;SDS011;2695;49.444;11.054;2023-05-10T15:16:51;1.77;;;1.50;;
5345;SDS011;2695;49.444;11.054;2023-05-10T15:19:28;2.90;;;1.40;;
5345;SDS011;2695;49.444;11.054;2023-05-10T15:22:00;1.03;;;0.93;;
5345;SDS011;2695;49.444;11.054;2023-05-10T15:24:30;1.93;;;1.47;;
5345;SDS011;2695;49.444;11.054;2023-05-10T15:26:58;4.33;;;1.10;;
5345;SDS011;2695;49.444;11.054;2023-05-10T15:29:26;1.33;;;1.00;;
5345;SDS011;2695;49.444;11.054;2023-05-10T15:31:54;2.17;;;1.30;;